Wetterdaten: Woche 06.06.16 - 12.06.16 (KW23)
Datum Zeit Temp. A. Feuchte A. Luftdruck Regen Wind Richtung Sonnenschein ET UV Solar Taupunkt Windchill Windben Empfang
06.06.2016 00:00 15,5 C 95 % 1016,7 hPa 0,6 l/m 2,1 km/h (1 Bft) NO 0,00 h 0,000 mm 0,0 UV-I 0 W/m 14,7 C 15,5 C 3,3 km/h (1 Bft) 99,27 %
06.06.2016 01:00 14,4 C 95 % 1016,7 hPa 0,0 l/m 1,9 km/h (1 Bft) SW 0,00 h 0,000 mm 0,0 UV-I 0 W/m 13,6 C 14,4 C 3,3 km/h (1 Bft) 98,11 %
06.06.2016 02:00 13,9 C 94 % 1016,6 hPa 0,0 l/m 4,0 km/h (1 Bft) SW 0,00 h 0,000 mm 0,0 UV-I 0 W/m 13,0 C 13,9 C 5,6 km/h (1 Bft) 98,89 %
06.06.2016 03:00 13,0 C 95 % 1016,6 hPa 0,0 l/m 1,2 km/h (1 Bft) SW 0,00 h 0,000 mm 0,0 UV-I 0 W/m 12,2 C 13,0 C 2,0 km/h (1 Bft) 98,59 %
06.06.2016 04:00 12,3 C 96 % 1016,7 hPa 0,0 l/m 1,7 km/h (1 Bft) SW 0,00 h 0,000 mm 0,0 UV-I 0 W/m 11,7 C 12,3 C 2,7 km/h (1 Bft) 98,78 %
06.06.2016 05:00 12,4 C 97 % 1017,2 hPa 0,0 l/m 1,2 km/h (1 Bft) S-SW 0,03 h 0,000 mm 0,0 UV-I 18 W/m 11,9 C 12,4 C 2,5 km/h (1 Bft) 98,83 %
06.06.2016 06:00 13,2 C 97 % 1017,7 hPa 0,0 l/m 2,2 km/h (1 Bft) S-SW 0,00 h 0,000 mm 0,0 UV-I 75 W/m 12,7 C 13,2 C 3,5 km/h (1 Bft) 98,81 %
06.06.2016 07:00 15,2 C 93 % 1017,9 hPa 0,0 l/m 4,7 km/h (1 Bft) SW 1,00 h 0,051 mm 0,7 UV-I 239 W/m 14,1 C 15,1 C 6,6 km/h (2 Bft) 97,93 %
06.06.2016 08:00 16,8 C 88 % 1018,2 hPa 0,0 l/m 4,5 km/h (1 Bft) SW 1,00 h 0,127 mm 1,5 UV-I 405 W/m 14,8 C 16,8 C 7,1 km/h (2 Bft) 98,66 %
06.06.2016 09:00 18,5 C 82 % 1018,4 hPa 0,0 l/m 3,7 km/h (1 Bft) W 1,00 h 0,228 mm 2,8 UV-I 538 W/m 15,2 C 18,4 C 5,8 km/h (2 Bft) 98,31 %
06.06.2016 10:00 19,8 C 76 % 1018,5 hPa 0,0 l/m 3,2 km/h (1 Bft) SW 1,00 h 0,305 mm 4,3 UV-I 715 W/m 15,5 C 19,8 C 5,3 km/h (1 Bft) 99,01 %
06.06.2016 11:00 21,3 C 72 % 1018,4 hPa 0,0 l/m 2,7 km/h (1 Bft) NW 0,97 h 0,407 mm 5,6 UV-I 793 W/m 16,0 C 21,3 C 4,8 km/h (1 Bft) 98,00 %
06.06.2016 12:00 22,6 C 66 % 1018,2 hPa 0,0 l/m 2,3 km/h (1 Bft) W-NW 1,00 h 0,482 mm 6,4 UV-I 906 W/m 15,8 C 22,6 C 4,3 km/h (1 Bft) 98,54 %
06.06.2016 13:00 23,4 C 61 % 1017,5 hPa 0,0 l/m 2,7 km/h (1 Bft) NW 0,87 h 0,534 mm 5,9 UV-I 774 W/m 15,4 C 23,4 C 4,7 km/h (1 Bft) 98,83 %
06.06.2016 14:00 24,3 C 56 % 1016,9 hPa 0,0 l/m 4,6 km/h (1 Bft) N-NO 1,00 h 0,482 mm 5,6 UV-I 833 W/m 15,0 C 24,2 C 7,5 km/h (2 Bft) 98,58 %
06.06.2016 15:00 24,9 C 50 % 1016,6 hPa 0,0 l/m 3,8 km/h (1 Bft) N-NO 1,00 h 0,534 mm 4,5 UV-I 757 W/m 13,6 C 24,8 C 6,2 km/h (2 Bft) 98,83 %
06.06.2016 16:00 24,4 C 52 % 1016,9 hPa 0,0 l/m 13,8 km/h (3 Bft) N-NO 0,90 h 0,508 mm 2,9 UV-I 676 W/m 13,7 C 22,8 C 20,1 km/h (4 Bft) 98,23 %
06.06.2016 17:00 18,8 C 73 % 1017,4 hPa 0,0 l/m 7,4 km/h (2 Bft) N-NO 0,00 h 0,508 mm 0,6 UV-I 72 W/m 13,8 C 18,0 C 12,5 km/h (3 Bft) 99,34 %
06.06.2016 18:00 17,9 C 77 % 1017,5 hPa 0,0 l/m 7,0 km/h (2 Bft) O 0,00 h 0,076 mm 0,0 UV-I 95 W/m 13,9 C 17,3 C 10,3 km/h (2 Bft) 98,04 %
06.06.2016 19:00 18,4 C 72 % 1017,7 hPa 0,0 l/m 4,9 km/h (1 Bft) O-SO 0,00 h 0,076 mm 0,0 UV-I 65 W/m 13,1 C 18,3 C 7,2 km/h (2 Bft) 99,36 %
06.06.2016 20:00 17,4 C 73 % 1017,9 hPa 0,0 l/m 2,9 km/h (1 Bft) O 0,03 h 0,051 mm 0,0 UV-I 19 W/m 12,6 C 17,4 C 4,1 km/h (1 Bft) 98,24 %
06.06.2016 21:00 15,8 C 85 % 1018,3 hPa 0,0 l/m 2,7 km/h (1 Bft) NO 0,00 h 0,025 mm 0,0 UV-I 0 W/m 13,3 C 15,8 C 4,0 km/h (1 Bft) 99,26 %
06.06.2016 22:00 14,5 C 90 % 1018,8 hPa 0,0 l/m 2,3 km/h (1 Bft) NO 0,00 h 0,000 mm 0,0 UV-I 0 W/m 12,9 C 14,5 C 3,6 km/h (1 Bft) 97,83 %
06.06.2016 23:00 14,0 C 91 % 1018,8 hPa 0,0 l/m 1,9 km/h (1 Bft) NO 0,00 h 0,000 mm 0,0 UV-I 0 W/m 12,5 C 14,0 C 3,1 km/h (1 Bft) 99,16 %
07.06.2016 00:00 13,2 C 93 % 1019,0 hPa 0,0 l/m 1,1 km/h (1 Bft) O-SO 0,00 h 0,000 mm 0,0 UV-I 0 W/m 12,1 C 13,2 C 2,0 km/h (1 Bft) 98,43 %
07.06.2016 01:00 13,1 C 94 % 1019,1 hPa 0,0 l/m 2,2 km/h (1 Bft) O-NO 0,00 h 0,000 mm 0,0 UV-I 0 W/m 12,2 C 13,1 C 3,1 km/h (1 Bft) 99,28 %
07.06.2016 02:00 12,8 C 95 % 1019,4 hPa 0,0 l/m 2,5 km/h (1 Bft) O-NO 0,00 h 0,000 mm 0,0 UV-I 0 W/m 12,0 C 12,8 C 3,6 km/h (1 Bft) 98,15 %
07.06.2016 03:00 12,9 C 94 % 1019,5 hPa 0,0 l/m 4,6 km/h (1 Bft) NO 0,00 h 0,000 mm 0,0 UV-I 0 W/m 12,0 C 12,9 C 6,7 km/h (2 Bft) 98,63 %
07.06.2016 04:00 12,8 C 93 % 1019,5 hPa 0,0 l/m 6,1 km/h (2 Bft) O-NO 0,00 h 0,000 mm 0,0 UV-I 0 W/m 11,7 C 12,6 C 8,9 km/h (2 Bft) 98,55 %
07.06.2016 05:00 12,7 C 92 % 1019,6 hPa 0,0 l/m 6,0 km/h (2 Bft) NO 0,05 h 0,000 mm 0,0 UV-I 17 W/m 11,4 C 12,6 C 8,3 km/h (2 Bft) 99,10 %
07.06.2016 06:00 13,4 C 89 % 1020,1 hPa 0,0 l/m 6,3 km/h (2 Bft) O-NO 0,15 h 0,025 mm 0,0 UV-I 76 W/m 11,6 C 13,1 C 9,0 km/h (2 Bft) 98,83 %
07.06.2016 07:00 14,7 C 81 % 1020,5 hPa 0,0 l/m 10,7 km/h (2 Bft) NO 1,00 h 0,051 mm 0,7 UV-I 255 W/m 11,4 C 12,6 C 15,0 km/h (3 Bft) 98,86 %
07.06.2016 08:00 16,1 C 73 % 1020,8 hPa 0,0 l/m 13,4 km/h (3 Bft) O-NO 1,00 h 0,153 mm 1,5 UV-I 433 W/m 11,3 C 13,1 C 18,4 km/h (3 Bft) 98,37 %
07.06.2016 09:00 17,9 C 65 % 1020,9 hPa 0,0 l/m 12,6 km/h (3 Bft) O-NO 1,00 h 0,279 mm 2,8 UV-I 532 W/m 11,3 C 15,5 C 17,7 km/h (3 Bft) 98,89 %
07.06.2016 10:00 19,5 C 61 % 1020,9 hPa 0,0 l/m 12,6 km/h (3 Bft) NO 1,00 h 0,356 mm 4,1 UV-I 715 W/m 11,8 C 17,4 C 17,6 km/h (3 Bft) 97,77 %
07.06.2016 11:00 20,9 C 59 % 1020,9 hPa 0,0 l/m 10,5 km/h (2 Bft) O-NO 1,00 h 0,482 mm 5,4 UV-I 817 W/m 12,7 C 19,5 C 15,4 km/h (3 Bft) 99,03 %
07.06.2016 12:00 22,1 C 54 % 1020,7 hPa 0,0 l/m 11,1 km/h (2 Bft) O-NO 1,00 h 0,534 mm 6,2 UV-I 876 W/m 12,3 C 20,7 C 16,1 km/h (3 Bft) 97,80 %
07.06.2016 13:00 23,0 C 49 % 1020,4 hPa 0,0 l/m 9,3 km/h (2 Bft) O-NO 1,00 h 0,584 mm 6,3 UV-I 892 W/m 11,8 C 22,1 C 14,1 km/h (3 Bft) 99,00 %
07.06.2016 14:00 23,4 C 52 % 1020,0 hPa 0,0 l/m 8,8 km/h (2 Bft) NO 1,00 h 0,609 mm 5,7 UV-I 851 W/m 12,9 C 22,6 C 13,6 km/h (3 Bft) 97,52 %
07.06.2016 15:00 23,8 C 49 % 1019,5 hPa 0,0 l/m 11,6 km/h (2 Bft) O-NO 1,00 h 0,585 mm 4,4 UV-I 769 W/m 12,4 C 22,5 C 16,8 km/h (3 Bft) 99,29 %
07.06.2016 16:00 24,0 C 48 % 1019,0 hPa 0,0 l/m 9,0 km/h (2 Bft) O-NO 1,00 h 0,558 mm 3,1 UV-I 672 W/m 12,4 C 23,3 C 13,5 km/h (3 Bft) 97,48 %
07.06.2016 17:00 23,9 C 49 % 1018,4 hPa 0,0 l/m 8,6 km/h (2 Bft) O-NO 1,00 h 0,483 mm 1,7 UV-I 497 W/m 12,4 C 23,3 C 12,6 km/h (3 Bft) 99,22 %
07.06.2016 18:00 23,5 C 50 % 1018,2 hPa 0,0 l/m 7,7 km/h (2 Bft) O-NO 1,00 h 0,381 mm 0,7 UV-I 316 W/m 12,6 C 23,1 C 11,2 km/h (2 Bft) 98,14 %
07.06.2016 19:00 22,2 C 56 % 1018,1 hPa 0,0 l/m 7,6 km/h (2 Bft) O-NO 0,80 h 0,254 mm 0,0 UV-I 141 W/m 12,9 C 21,8 C 11,2 km/h (2 Bft) 98,98 %
07.06.2016 20:00 19,7 C 63 % 1018,3 hPa 0,0 l/m 5,4 km/h (1 Bft) O-NO 0,05 h 0,127 mm 0,0 UV-I 22 W/m 12,5 C 19,6 C 7,5 km/h (2 Bft) 97,62 %
07.06.2016 21:00 17,6 C 68 % 1018,6 hPa 0,0 l/m 3,8 km/h (1 Bft) O-NO 0,00 h 0,051 mm 0,0 UV-I 5 W/m 11,5 C 17,6 C 5,6 km/h (1 Bft) 99,14 %
07.06.2016 22:00 16,4 C 70 % 1018,9 hPa 0,0 l/m 2,7 km/h (1 Bft) O-NO 0,00 h 0,025 mm 0,0 UV-I 0 W/m 10,9 C 16,4 C 4,1 km/h (1 Bft) 96,92 %
07.06.2016 23:00 15,5 C 71 % 1019,2 hPa 0,0 l/m 2,2 km/h (1 Bft) O-NO 0,00 h 0,026 mm 0,0 UV-I 0 W/m 10,3 C 15,5 C 3,5 km/h (1 Bft) 99,64 %
08.06.2016 00:00 15,0 C 72 % 1019,1 hPa 0,0 l/m 4,0 km/h (1 Bft) O-NO 0,00 h 0,000 mm 0,0 UV-I 0 W/m 9,9 C 15,0 C 5,7 km/h (1 Bft) 96,16 %
08.06.2016 01:00 14,6 C 72 % 1018,8 hPa 0,0 l/m 4,1 km/h (1 Bft) O-NO 0,00 h 0,025 mm 0,0 UV-I 0 W/m 9,7 C 14,5 C 6,3 km/h (2 Bft) 98,63 %
08.06.2016 02:00 12,8 C 82 % 1018,4 hPa 0,0 l/m 0,9 km/h (0 Bft) O-SO 0,00 h 0,026 mm 0,0 UV-I 0 W/m 9,8 C 12,8 C 1,7 km/h (1 Bft) 97,24 %
08.06.2016 03:00 11,8 C 87 % 1018,1 hPa 0,0 l/m 0,5 km/h (0 Bft) O-SO 0,00 h 0,000 mm 0,0 UV-I 0 W/m 9,7 C 11,8 C 1,2 km/h (1 Bft) 99,26 %
08.06.2016 04:00 11,2 C 88 % 1017,8 hPa 0,0 l/m 1,4 km/h (1 Bft) O-SO 0,00 h 0,000 mm 0,0 UV-I 5 W/m 9,4 C 11,2 C 2,2 km/h (1 Bft) 97,31 %
08.06.2016 05:00 11,2 C 89 % 1017,8 hPa 0,0 l/m 1,2 km/h (1 Bft) O-SO 0,10 h 0,000 mm 0,0 UV-I 20 W/m 9,4 C 11,2 C 2,1 km/h (1 Bft) 99,53 %
08.06.2016 06:00 12,1 C 89 % 1017,9 hPa 0,0 l/m 0,9 km/h (0 Bft) O 0,22 h 0,025 mm 0,0 UV-I 82 W/m 10,3 C 12,1 C 1,8 km/h (1 Bft) 97,53 %
08.06.2016 07:00 14,7 C 79 % 1017,9 hPa 0,0 l/m 4,2 km/h (1 Bft) O-NO 1,00 h 0,051 mm 0,7 UV-I 274 W/m 11,1 C 14,7 C 5,9 km/h (2 Bft) 99,09 %
08.06.2016 08:00 16,5 C 74 % 1017,8 hPa 0,0 l/m 2,5 km/h (1 Bft) O-NO 1,00 h 0,152 mm 1,6 UV-I 458 W/m 11,7 C 16,5 C 4,3 km/h (1 Bft) 97,82 %
08.06.2016 09:00 17,8 C 73 % 1017,5 hPa 0,0 l/m 2,0 km/h (1 Bft) N-NO 0,82 h 0,254 mm 2,3 UV-I 435 W/m 13,0 C 17,8 C 3,8 km/h (1 Bft) 99,30 %
08.06.2016 10:00 18,8 C 70 % 1017,3 hPa 0,0 l/m 1,4 km/h (1 Bft) N-NO 0,92 h 0,254 mm 3,3 UV-I 544 W/m 13,1 C 18,8 C 3,1 km/h (1 Bft) 97,83 %
08.06.2016 11:00 20,7 C 64 % 1017,0 hPa 0,0 l/m 2,9 km/h (1 Bft) NW 1,00 h 0,305 mm 5,4 UV-I 838 W/m 13,5 C 20,7 C 4,9 km/h (1 Bft) 99,08 %
08.06.2016 12:00 22,4 C 58 % 1016,4 hPa 0,0 l/m 2,8 km/h (1 Bft) N-NO 1,00 h 0,483 mm 6,2 UV-I 881 W/m 13,6 C 22,4 C 5,0 km/h (1 Bft) 97,97 %
08.06.2016 13:00 23,5 C 50 % 1015,7 hPa 0,0 l/m 4,2 km/h (1 Bft) NO 0,93 h 0,533 mm 6,2 UV-I 868 W/m 12,5 C 23,4 C 7,0 km/h (2 Bft) 99,09 %
08.06.2016 14:00 24,2 C 49 % 1014,7 hPa 0,0 l/m 3,9 km/h (1 Bft) NO 1,07 h 0,559 mm 5,4 UV-I 827 W/m 12,6 C 24,1 C 6,5 km/h (2 Bft) 98,83 %
08.06.2016 15:00 24,7 C 45 % 1014,1 hPa 0,0 l/m 3,9 km/h (1 Bft) N-NO 1,00 h 0,533 mm 4,4 UV-I 772 W/m 11,8 C 24,7 C 6,2 km/h (2 Bft) 99,35 %
08.06.2016 16:00 24,7 C 44 % 1013,5 hPa 0,0 l/m 3,2 km/h (1 Bft) N-NO 1,00 h 0,508 mm 2,7 UV-I 568 W/m 11,5 C 24,7 C 5,6 km/h (1 Bft) 98,25 %
08.06.2016 17:00 22,5 C 56 % 1013,1 hPa 0,0 l/m 4,0 km/h (1 Bft) N-NW 0,22 h 0,381 mm 1,0 UV-I 228 W/m 13,2 C 22,4 C 7,7 km/h (2 Bft) 98,57 %
08.06.2016 18:00 21,6 C 61 % 1013,0 hPa 0,0 l/m 2,9 km/h (1 Bft) SW 0,25 h 0,178 mm 0,6 UV-I 172 W/m 13,6 C 21,5 C 4,9 km/h (1 Bft) 98,10 %
08.06.2016 19:00 19,7 C 68 % 1013,2 hPa 0,0 l/m 10,9 km/h (2 Bft) SW 0,00 h 0,127 mm 0,0 UV-I 45 W/m 13,7 C 18,1 C 16,1 km/h (3 Bft) 98,15 %
08.06.2016 20:00 18,4 C 76 % 1013,4 hPa 0,0 l/m 7,0 km/h (2 Bft) W-SW 0,00 h 0,076 mm 0,0 UV-I 12 W/m 14,1 C 18,0 C 10,6 km/h (2 Bft) 98,22 %
08.06.2016 21:00 17,5 C 73 % 1013,8 hPa 0,0 l/m 7,0 km/h (2 Bft) W-SW 0,00 h 0,026 mm 0,0 UV-I 0 W/m 12,5 C 17,0 C 11,1 km/h (2 Bft) 97,77 %
08.06.2016 22:00 16,8 C 74 % 1013,8 hPa 0,0 l/m 6,1 km/h (2 Bft) W-SW 0,00 h 0,025 mm 0,0 UV-I 0 W/m 12,2 C 16,6 C 9,2 km/h (2 Bft) 98,30 %
08.06.2016 23:00 16,1 C 79 % 1014,2 hPa 0,0 l/m 2,5 km/h (1 Bft) W-SW 0,00 h 0,026 mm 0,0 UV-I 0 W/m 12,5 C 16,1 C 3,8 km/h (1 Bft) 98,07 %
09.06.2016 00:00 15,7 C 83 % 1014,2 hPa 0,0 l/m 3,7 km/h (1 Bft) SW 0,00 h 0,000 mm 0,0 UV-I 0 W/m 12,7 C 15,6 C 5,7 km/h (1 Bft) 98,08 %
09.06.2016 01:00 15,4 C 85 % 1014,1 hPa 0,0 l/m 8,3 km/h (2 Bft) W-SW 0,00 h 0,000 mm 0,0 UV-I 0 W/m 12,9 C 14,4 C 11,9 km/h (2 Bft) 98,10 %
09.06.2016 02:00 14,9 C 90 % 1013,8 hPa 0,0 l/m 7,5 km/h (2 Bft) SW 0,00 h 0,025 mm 0,0 UV-I 0 W/m 13,2 C 14,2 C 10,3 km/h (2 Bft) 98,77 %
09.06.2016 03:00 14,6 C 91 % 1013,3 hPa 0,0 l/m 7,1 km/h (2 Bft) SW 0,00 h 0,000 mm 0,0 UV-I 0 W/m 13,2 C 14,1 C 10,6 km/h (2 Bft) 97,64 %
09.06.2016 04:00 14,5 C 92 % 1012,9 hPa 0,0 l/m 6,9 km/h (2 Bft) S-SW 0,00 h 0,000 mm 0,0 UV-I 0 W/m 13,2 C 14,0 C 10,2 km/h (2 Bft) 98,58 %
09.06.2016 05:00 14,4 C 92 % 1012,9 hPa 0,0 l/m 8,0 km/h (2 Bft) SW 0,00 h 0,000 mm 0,0 UV-I 11 W/m 13,1 C 13,5 C 11,9 km/h (2 Bft) 98,18 %
09.06.2016 06:00 14,5 C 91 % 1013,0 hPa 0,0 l/m 7,0 km/h (2 Bft) SW 0,00 h 0,026 mm 0,0 UV-I 28 W/m 13,1 C 14,0 C 10,5 km/h (2 Bft) 98,53 %
09.06.2016 07:00 14,7 C 92 % 1012,9 hPa 0,0 l/m 7,2 km/h (2 Bft) W-SW 0,00 h 0,025 mm 0,0 UV-I 46 W/m 13,3 C 14,1 C 10,8 km/h (2 Bft) 97,84 %
09.06.2016 08:00 14,6 C 94 % 1013,1 hPa 1,4 l/m 6,7 km/h (2 Bft) W-SW 0,00 h 0,026 mm 0,0 UV-I 65 W/m 13,6 C 14,2 C 10,2 km/h (2 Bft) 98,96 %
09.06.2016 09:00 14,6 C 95 % 1013,3 hPa 1,6 l/m 5,2 km/h (1 Bft) SW 0,00 h 0,050 mm 0,5 UV-I 94 W/m 13,7 C 14,5 C 7,8 km/h (2 Bft) 97,54 %
09.06.2016 10:00 14,8 C 95 % 1013,3 hPa 1,8 l/m 4,2 km/h (1 Bft) S-SW 0,00 h 0,051 mm 0,9 UV-I 149 W/m 14,0 C 14,8 C 6,1 km/h (2 Bft) 98,97 %
09.06.2016 11:00 15,2 C 93 % 1013,2 hPa 0,8 l/m 3,6 km/h (1 Bft) W 0,00 h 0,076 mm 1,2 UV-I 180 W/m 14,0 C 15,2 C 5,5 km/h (1 Bft) 97,54 %
09.06.2016 12:00 15,9 C 89 % 1013,2 hPa 0,2 l/m 2,7 km/h (1 Bft) W-SW 0,00 h 0,102 mm 2,4 UV-I 338 W/m 14,0 C 15,9 C 4,2 km/h (1 Bft) 98,50 %
09.06.2016 13:00 16,6 C 87 % 1013,0 hPa 0,0 l/m 2,8 km/h (1 Bft) W 0,00 h 0,178 mm 2,1 UV-I 277 W/m 14,4 C 16,6 C 4,5 km/h (1 Bft) 97,37 %
09.06.2016 14:00 16,4 C 89 % 1012,7 hPa 0,0 l/m 4,3 km/h (1 Bft) SW 0,00 h 0,152 mm 1,3 UV-I 193 W/m 14,6 C 16,4 C 6,3 km/h (2 Bft) 98,67 %
09.06.2016 15:00 16,1 C 90 % 1012,6 hPa 0,4 l/m 5,8 km/h (2 Bft) S-SW 0,00 h 0,102 mm 0,9 UV-I 164 W/m 14,5 C 15,9 C 8,0 km/h (2 Bft) 98,38 %
09.06.2016 16:00 16,0 C 92 % 1012,6 hPa 0,2 l/m 7,2 km/h (2 Bft) S-SW 0,00 h 0,101 mm 0,8 UV-I 153 W/m 14,6 C 15,5 C 10,1 km/h (2 Bft) 98,45 %
09.06.2016 17:00 16,0 C 91 % 1012,5 hPa 0,2 l/m 7,0 km/h (2 Bft) S-SW 0,00 h 0,077 mm 0,6 UV-I 126 W/m 14,6 C 15,4 C 9,8 km/h (2 Bft) 98,18 %
09.06.2016 18:00 15,8 C 92 % 1012,5 hPa 0,2 l/m 6,9 km/h (2 Bft) S-SW 0,00 h 0,076 mm 0,0 UV-I 100 W/m 14,5 C 15,3 C 9,9 km/h (2 Bft) 98,09 %
09.06.2016 19:00 15,6 C 92 % 1012,9 hPa 0,0 l/m 6,5 km/h (2 Bft) S-SW 0,00 h 0,051 mm 0,0 UV-I 61 W/m 14,2 C 15,3 C 9,0 km/h (2 Bft) 97,98 %
09.06.2016 20:00 15,5 C 94 % 1013,1 hPa 0,0 l/m 1,8 km/h (1 Bft) SW 0,00 h 0,050 mm 0,0 UV-I 17 W/m 14,5 C 15,5 C 3,2 km/h (1 Bft) 98,44 %
09.06.2016 21:00 14,8 C 95 % 1013,3 hPa 0,2 l/m 2,4 km/h (1 Bft) W 0,00 h 0,000 mm 0,0 UV-I 0 W/m 14,0 C 14,8 C 4,2 km/h (1 Bft) 97,79 %
09.06.2016 22:00 14,6 C 95 % 1013,4 hPa 0,0 l/m 2,1 km/h (1 Bft) W-SW 0,00 h 0,000 mm 0,0 UV-I 0 W/m 13,8 C 14,6 C 3,2 km/h (1 Bft) 98,66 %
09.06.2016 23:00 14,6 C 96 % 1013,5 hPa 0,0 l/m 2,3 km/h (1 Bft) SW 0,00 h 0,000 mm 0,0 UV-I 0 W/m 14,0 C 14,6 C 3,6 km/h (1 Bft) 97,97 %
10.06.2016 00:00 14,4 C 95 % 1013,4 hPa 0,2 l/m 2,9 km/h (1 Bft) S-SW 0,00 h 0,000 mm 0,0 UV-I 0 W/m 13,6 C 14,4 C 4,3 km/h (1 Bft) 97,11 %
10.06.2016 01:00 14,2 C 96 % 1013,1 hPa 0,2 l/m 3,2 km/h (1 Bft) S 0,00 h 0,000 mm 0,0 UV-I 0 W/m 13,5 C 14,2 C 5,0 km/h (1 Bft) 98,02 %
10.06.2016 02:00 14,1 C 96 % 1012,8 hPa 1,0 l/m 2,8 km/h (1 Bft) S 0,00 h 0,000 mm 0,0 UV-I 0 W/m 13,5 C 14,1 C 4,5 km/h (1 Bft) 98,06 %
10.06.2016 03:00 14,0 C 97 % 1012,6 hPa 0,8 l/m 3,9 km/h (1 Bft) S-SW 0,00 h 0,000 mm 0,0 UV-I 0 W/m 13,4 C 14,0 C 5,5 km/h (1 Bft) 97,68 %
10.06.2016 04:00 13,8 C 97 % 1012,4 hPa 0,0 l/m 5,2 km/h (1 Bft) W-SW 0,00 h 0,000 mm 0,0 UV-I 0 W/m 13,3 C 13,8 C 7,4 km/h (2 Bft) 98,94 %
10.06.2016 05:00 13,8 C 97 % 1012,3 hPa 0,0 l/m 4,6 km/h (1 Bft) S-SW 0,00 h 0,000 mm 0,0 UV-I 13 W/m 13,3 C 13,7 C 6,5 km/h (2 Bft) 98,46 %
10.06.2016 06:00 13,9 C 96 % 1012,4 hPa 0,0 l/m 6,0 km/h (2 Bft) W-SW 0,00 h 0,000 mm 0,0 UV-I 59 W/m 13,2 C 13,6 C 9,0 km/h (2 Bft) 99,17 %
10.06.2016 07:00 14,7 C 92 % 1012,3 hPa 0,0 l/m 8,1 km/h (2 Bft) W-SW 0,45 h 0,025 mm 0,6 UV-I 206 W/m 13,5 C 13,7 C 12,1 km/h (2 Bft) 97,57 %
10.06.2016 08:00 15,2 C 90 % 1012,2 hPa 0,0 l/m 6,6 km/h (2 Bft) W-SW 0,18 h 0,102 mm 1,0 UV-I 235 W/m 13,5 C 14,7 C 10,1 km/h (2 Bft) 98,58 %
10.06.2016 09:00 16,6 C 83 % 1012,3 hPa 0,0 l/m 6,0 km/h (2 Bft) W-SW 0,90 h 0,127 mm 2,7 UV-I 539 W/m 13,6 C 16,2 C 9,9 km/h (2 Bft) 97,91 %
10.06.2016 10:00 18,2 C 76 % 1012,1 hPa 0,0 l/m 5,3 km/h (1 Bft) W-SW 0,83 h 0,305 mm 3,8 UV-I 695 W/m 13,8 C 17,9 C 8,7 km/h (2 Bft) 98,94 %
10.06.2016 11:00 18,4 C 71 % 1011,8 hPa 0,0 l/m 2,0 km/h (1 Bft) W 0,23 h 0,381 mm 2,9 UV-I 380 W/m 13,1 C 18,4 C 3,9 km/h (1 Bft) 97,84 %
10.06.2016 12:00 19,2 C 65 % 1011,4 hPa 0,0 l/m 3,8 km/h (1 Bft) SW 0,27 h 0,228 mm 4,3 UV-I 510 W/m 12,6 C 19,2 C 6,4 km/h (2 Bft) 98,21 %
10.06.2016 13:00 20,8 C 59 % 1010,8 hPa 0,0 l/m 4,4 km/h (1 Bft) N-NW 0,80 h 0,356 mm 5,8 UV-I 800 W/m 12,5 C 20,7 C 7,8 km/h (2 Bft) 97,76 %
10.06.2016 14:00 21,3 C 55 % 1010,3 hPa 0,0 l/m 4,2 km/h (1 Bft) W-SW 0,80 h 0,483 mm 5,2 UV-I 738 W/m 11,9 C 21,1 C 7,5 km/h (2 Bft) 98,81 %
10.06.2016 15:00 22,1 C 52 % 1009,7 hPa 0,0 l/m 5,0 km/h (1 Bft) W 1,00 h 0,457 mm 4,6 UV-I 778 W/m 11,8 C 21,9 C 8,4 km/h (2 Bft) 97,75 %
10.06.2016 16:00 22,5 C 50 % 1009,2 hPa 0,0 l/m 5,2 km/h (1 Bft) W 0,78 h 0,508 mm 2,9 UV-I 569 W/m 11,5 C 22,3 C 9,0 km/h (2 Bft) 98,75 %
10.06.2016 17:00 22,6 C 50 % 1008,8 hPa 0,0 l/m 3,9 km/h (1 Bft) W 0,93 h 0,381 mm 1,8 UV-I 484 W/m 11,5 C 22,5 C 7,3 km/h (2 Bft) 98,03 %
10.06.2016 18:00 22,0 C 53 % 1008,6 hPa 0,0 l/m 3,7 km/h (1 Bft) W-NW 1,00 h 0,330 mm 0,8 UV-I 308 W/m 12,0 C 22,0 C 7,6 km/h (2 Bft) 99,29 %
10.06.2016 19:00 21,0 C 56 % 1008,6 hPa 0,0 l/m 2,0 km/h (1 Bft) NW 0,75 h 0,203 mm 0,3 UV-I 142 W/m 11,9 C 21,0 C 4,3 km/h (1 Bft) 97,97 %
10.06.2016 20:00 19,5 C 60 % 1008,6 hPa 0,0 l/m 1,2 km/h (1 Bft) W 0,03 h 0,102 mm 0,0 UV-I 28 W/m 11,7 C 19,5 C 2,5 km/h (1 Bft) 98,59 %
10.06.2016 21:00 16,9 C 75 % 1009,0 hPa 0,0 l/m 0,8 km/h (0 Bft) W 0,00 h 0,025 mm 0,0 UV-I 4 W/m 12,5 C 16,9 C 1,8 km/h (1 Bft) 97,56 %
10.06.2016 22:00 15,6 C 79 % 1009,2 hPa 0,0 l/m 1,0 km/h (0 Bft) W 0,00 h 0,000 mm 0,0 UV-I 0 W/m 11,9 C 15,6 C 2,1 km/h (1 Bft) 98,73 %
10.06.2016 23:00 14,6 C 83 % 1009,3 hPa 0,0 l/m 3,8 km/h (1 Bft) S 0,00 h 0,000 mm 0,0 UV-I 0 W/m 11,8 C 14,6 C 6,2 km/h (2 Bft) 98,01 %
11.06.2016 00:00 14,3 C 84 % 1009,2 hPa 0,0 l/m 5,4 km/h (1 Bft) S 0,00 h 0,000 mm 0,0 UV-I 0 W/m 11,7 C 14,3 C 7,8 km/h (2 Bft) 99,29 %
11.06.2016 01:00 13,6 C 85 % 1008,9 hPa 0,0 l/m 5,2 km/h (1 Bft) S 0,00 h 0,025 mm 0,0 UV-I 0 W/m 11,1 C 13,6 C 7,3 km/h (2 Bft) 98,22 %
11.06.2016 02:00 12,8 C 87 % 1008,7 hPa 0,0 l/m 4,4 km/h (1 Bft) S-SW 0,00 h 0,000 mm 0,0 UV-I 0 W/m 10,8 C 12,8 C 5,9 km/h (2 Bft) 99,30 %
11.06.2016 03:00 12,6 C 87 % 1008,5 hPa 0,0 l/m 3,6 km/h (1 Bft) S-SW 0,00 h 0,000 mm 0,0 UV-I 0 W/m 10,5 C 12,6 C 4,9 km/h (1 Bft) 97,29 %
11.06.2016 04:00 12,2 C 89 % 1008,3 hPa 0,0 l/m 3,0 km/h (1 Bft) S-SW 0,00 h 0,000 mm 0,0 UV-I 0 W/m 10,4 C 12,2 C 4,5 km/h (1 Bft) 99,28 %
11.06.2016 05:00 11,3 C 91 % 1008,2 hPa 0,0 l/m 2,3 km/h (1 Bft) S 0,03 h 0,000 mm 0,0 UV-I 23 W/m 10,0 C 11,3 C 3,5 km/h (1 Bft) 97,61 %
11.06.2016 06:00 12,1 C 91 % 1008,3 hPa 0,0 l/m 0,6 km/h (0 Bft) S-SO 0,23 h 0,026 mm 0,0 UV-I 96 W/m 10,6 C 12,1 C 1,3 km/h (1 Bft) 99,57 %
11.06.2016 07:00 14,2 C 84 % 1008,6 hPa 0,0 l/m 1,1 km/h (0 Bft) S-SO 0,55 h 0,051 mm 0,7 UV-I 215 W/m 11,6 C 14,2 C 2,3 km/h (1 Bft) 98,04 %
11.06.2016 08:00 15,6 C 82 % 1008,9 hPa 0,0 l/m 1,9 km/h (1 Bft) S-SO 0,37 h 0,101 mm 1,1 UV-I 270 W/m 12,4 C 15,6 C 3,7 km/h (1 Bft) 99,08 %
11.06.2016 09:00 16,7 C 81 % 1009,1 hPa 0,0 l/m 2,3 km/h (1 Bft) NO 0,10 h 0,153 mm 1,5 UV-I 302 W/m 13,4 C 16,7 C 3,7 km/h (1 Bft) 98,04 %
11.06.2016 10:00 17,6 C 78 % 1009,2 hPa 0,0 l/m 0,9 km/h (0 Bft) S-SO 0,15 h 0,177 mm 2,3 UV-I 362 W/m 13,7 C 17,6 C 2,3 km/h (1 Bft) 98,42 %
11.06.2016 11:00 19,4 C 72 % 1009,1 hPa 0,0 l/m 2,1 km/h (1 Bft) N 0,93 h 0,204 mm 4,6 UV-I 664 W/m 14,2 C 19,4 C 3,7 km/h (1 Bft) 97,84 %
11.06.2016 12:00 21,2 C 59 % 1009,0 hPa 0,0 l/m 3,5 km/h (1 Bft) S-SO 0,73 h 0,406 mm 4,7 UV-I 694 W/m 12,7 C 21,1 C 6,0 km/h (2 Bft) 99,13 %
11.06.2016 13:00 20,2 C 68 % 1009,0 hPa 0,0 l/m 2,4 km/h (1 Bft) NW 0,00 h 0,432 mm 2,5 UV-I 346 W/m 14,2 C 20,2 C 5,0 km/h (1 Bft) 97,66 %
11.06.2016 14:00 20,8 C 63 % 1008,8 hPa 0,0 l/m 3,2 km/h (1 Bft) W 0,12 h 0,229 mm 2,9 UV-I 406 W/m 13,3 C 20,8 C 5,8 km/h (2 Bft) 98,68 %
11.06.2016 15:00 20,1 C 63 % 1008,8 hPa 0,0 l/m 8,0 km/h (2 Bft) W-SW 0,00 h 0,253 mm 1,6 UV-I 248 W/m 12,8 C 19,3 C 12,3 km/h (3 Bft) 97,66 %
11.06.2016 16:00 17,8 C 85 % 1009,1 hPa 0,2 l/m 8,4 km/h (2 Bft) W-SW 0,00 h 0,178 mm 0,6 UV-I 85 W/m 15,1 C 16,9 C 12,3 km/h (3 Bft) 99,23 %
11.06.2016 17:00 16,9 C 90 % 1009,4 hPa 0,2 l/m 7,0 km/h (2 Bft) W-SW 0,00 h 0,076 mm 0,0 UV-I 62 W/m 15,2 C 16,4 C 10,3 km/h (2 Bft) 97,69 %
11.06.2016 18:00 16,0 C 92 % 1009,4 hPa 0,6 l/m 7,1 km/h (2 Bft) SW 0,00 h 0,051 mm 0,0 UV-I 54 W/m 14,7 C 15,5 C 10,3 km/h (2 Bft) 99,55 %
11.06.2016 19:00 15,4 C 91 % 1009,3 hPa 0,0 l/m 4,6 km/h (1 Bft) S 0,40 h 0,026 mm 0,0 UV-I 99 W/m 14,0 C 15,4 C 7,2 km/h (2 Bft) 97,56 %
11.06.2016 20:00 15,8 C 91 % 1009,3 hPa 0,0 l/m 2,6 km/h (1 Bft) S 0,52 h 0,050 mm 0,0 UV-I 41 W/m 14,2 C 15,8 C 4,3 km/h (1 Bft) 99,15 %
11.06.2016 21:00 15,5 C 92 % 1009,6 hPa 0,0 l/m 0,6 km/h (0 Bft) S-SW 0,00 h 0,026 mm 0,0 UV-I 5 W/m 14,2 C 15,5 C 1,3 km/h (1 Bft) 97,36 %
11.06.2016 22:00 15,3 C 93 % 1009,9 hPa 0,0 l/m 1,7 km/h (1 Bft) S-SW 0,00 h 0,000 mm 0,0 UV-I 0 W/m 14,2 C 15,3 C 3,1 km/h (1 Bft) 99,21 %
11.06.2016 23:00 15,3 C 93 % 1010,0 hPa 0,0 l/m 2,3 km/h (1 Bft) S-SW 0,00 h 0,000 mm 0,0 UV-I 0 W/m 14,2 C 15,3 C 3,7 km/h (1 Bft) 98,02 %
12.06.2016 00:00 15,0 C 93 % 1010,0 hPa 0,0 l/m 3,2 km/h (1 Bft) S 0,00 h 0,000 mm 0,0 UV-I 0 W/m 14,0 C 15,0 C 4,9 km/h (1 Bft) 99,73 %
12.06.2016 01:00 14,5 C 95 % 1009,9 hPa 0,0 l/m 1,6 km/h (1 Bft) S 0,00 h 0,000 mm 0,0 UV-I 0 W/m 13,7 C 14,5 C 2,8 km/h (1 Bft) 98,41 %
12.06.2016 02:00 14,1 C 95 % 1009,9 hPa 0,0 l/m 4,5 km/h (1 Bft) S-SW 0,00 h 0,000 mm 0,0 UV-I 0 W/m 13,3 C 14,1 C 6,3 km/h (2 Bft) 99,53 %
12.06.2016 03:00 14,1 C 93 % 1009,7 hPa 0,0 l/m 5,6 km/h (1 Bft) SW 0,00 h 0,000 mm 0,0 UV-I 0 W/m 13,1 C 14,0 C 7,9 km/h (2 Bft) 97,15 %
12.06.2016 04:00 14,2 C 90 % 1009,6 hPa 0,0 l/m 8,7 km/h (2 Bft) SW 0,00 h 0,000 mm 0,0 UV-I 0 W/m 12,6 C 13,0 C 12,6 km/h (3 Bft) 99,12 %
12.06.2016 05:00 14,2 C 89 % 1009,6 hPa 0,0 l/m 6,5 km/h (2 Bft) SW 0,13 h 0,025 mm 0,0 UV-I 16 W/m 12,4 C 13,9 C 9,2 km/h (2 Bft) 97,80 %
12.06.2016 06:00 14,3 C 90 % 1009,7 hPa 0,2 l/m 9,1 km/h (2 Bft) W-SW 0,00 h 0,026 mm 0,0 UV-I 47 W/m 12,7 C 12,9 C 12,7 km/h (3 Bft) 99,42 %
12.06.2016 07:00 14,3 C 93 % 1009,8 hPa 0,2 l/m 6,4 km/h (2 Bft) SW 0,00 h 0,025 mm 0,5 UV-I 69 W/m 13,2 C 13,9 C 9,2 km/h (2 Bft) 97,63 %
12.06.2016 08:00 15,0 C 92 % 1009,7 hPa 0,0 l/m 8,9 km/h (2 Bft) SW 0,10 h 0,051 mm 0,9 UV-I 186 W/m 13,7 C 13,7 C 13,5 km/h (3 Bft) 99,27 %
12.06.2016 09:00 16,4 C 86 % 1009,6 hPa 0,2 l/m 10,4 km/h (2 Bft) W-SW 0,10 h 0,102 mm 1,1 UV-I 233 W/m 14,0 C 14,6 C 14,9 km/h (3 Bft) 98,17 %
12.06.2016 10:00 16,6 C 85 % 1009,4 hPa 0,0 l/m 13,0 km/h (3 Bft) W-SW 0,15 h 0,152 mm 1,8 UV-I 300 W/m 14,1 C 13,9 C 19,1 km/h (3 Bft) 99,29 %
12.06.2016 11:00 18,1 C 78 % 1009,0 hPa 0,0 l/m 17,0 km/h (3 Bft) SW 0,65 h 0,178 mm 4,9 UV-I 805 W/m 14,2 C 14,6 C 24,3 km/h (4 Bft) 97,82 %
12.06.2016 12:00 19,0 C 74 % 1008,5 hPa 0,0 l/m 16,1 km/h (3 Bft) S-SW 0,58 h 0,457 mm 4,4 UV-I 627 W/m 14,1 C 15,9 C 24,2 km/h (4 Bft) 99,53 %
12.06.2016 13:00 16,5 C 84 % 1008,1 hPa 2,0 l/m 3,8 km/h (1 Bft) S-SW 0,05 h 0,432 mm 1,8 UV-I 229 W/m 13,8 C 16,4 C 6,3 km/h (2 Bft) 97,89 %
12.06.2016 14:00 16,7 C 85 % 1007,8 hPa 0,4 l/m 4,2 km/h (1 Bft) S-SW 0,00 h 0,127 mm 1,5 UV-I 155 W/m 14,1 C 16,4 C 6,8 km/h (2 Bft) 99,52 %
12.06.2016 15:00 16,3 C 89 % 1007,5 hPa 0,6 l/m 4,5 km/h (1 Bft) W 0,28 h 0,127 mm 2,4 UV-I 372 W/m 14,5 C 16,1 C 7,3 km/h (2 Bft) 97,80 %
12.06.2016 16:00 18,8 C 79 % 1006,9 hPa 0,0 l/m 5,2 km/h (1 Bft) W-SW 0,62 h 0,228 mm 2,3 UV-I 457 W/m 15,1 C 18,7 C 8,0 km/h (2 Bft) 99,38 %
12.06.2016 17:00 19,3 C 75 % 1006,5 hPa 0,0 l/m 5,6 km/h (1 Bft) W-SW 0,20 h 0,280 mm 1,1 UV-I 217 W/m 14,8 C 19,1 C 9,5 km/h (2 Bft) 97,89 %
12.06.2016 18:00 18,2 C 82 % 1006,4 hPa 0,0 l/m 5,4 km/h (1 Bft) W-SW 0,00 h 0,152 mm 0,5 UV-I 141 W/m 15,1 C 18,1 C 8,3 km/h (2 Bft) 99,29 %
12.06.2016 19:00 17,8 C 78 % 1006,6 hPa 0,0 l/m 6,4 km/h (2 Bft) SW 0,00 h 0,102 mm 0,0 UV-I 36 W/m 14,0 C 17,4 C 10,0 km/h (2 Bft) 97,97 %
12.06.2016 20:00 16,3 C 86 % 1006,6 hPa 0,0 l/m 6,2 km/h (2 Bft) SW 0,20 h 0,051 mm 0,0 UV-I 23 W/m 14,0 C 16,0 C 8,9 km/h (2 Bft) 99,38 %
12.06.2016 21:00 15,4 C 91 % 1006,6 hPa 0,0 l/m 4,8 km/h (1 Bft) SW 0,00 h 0,025 mm 0,0 UV-I 3 W/m 14,0 C 15,4 C 6,7 km/h (2 Bft) 97,93 %
12.06.2016 22:00 15,2 C 92 % 1006,9 hPa 0,0 l/m 9,7 km/h (2 Bft) SW 0,00 h 0,000 mm 0,0 UV-I 0 W/m 13,8 C 13,5 C 14,3 km/h (3 Bft) 99,24 %
12.06.2016 23:00 14,9 C 91 % 1006,8 hPa 0,0 l/m 10,2 km/h (2 Bft) S-SW 0,00 h 0,000 mm 0,0 UV-I 0 W/m 13,4 C 13,0 C 15,1 km/h (3 Bft) 98,01 %
Min-Datum _ 08.06.16 08.06.16 12.06.16 - 06.06.16 - - - - - 08.06.16 07.06.16 06.06.16 10.06.16
_ Min-Zeit 04:52 16:53 17:43 - 00:09 - - - - - 16:53 07:49 00:09 00:02
Minimum _ 10,8 C 35 % 1006,4 hPa - 0,0 km/h (0 Bft) - - - - - 8,3 C 10,5 C 0,0 km/h (0 Bft) 4,76 %
Max-Datum _ 06.06.16 06.06.16 07.06.16 12.06.16 06.06.16 - 08.06.16 07.06.16 12.06.16 12.06.16 06.06.16 06.06.16 06.06.16 06.06.16
_ Max-Zeit 16:07 04:01 09:19 13:32 16:38 - 13:45 14:00 12:11 12:17 12:16 16:32 16:38 00:00
Maximum _ 25,5 C 97 % 1021,0 hPa 2,0 l/m 37,0 km/h
N-NO (5 Bft)
- 0,08 h 0,609 mm 6,9 UV-I 1204 W/m 17,6 C 25,5 C 53,1 km/h
NO (7 Bft)
100,00 %
Durchschnitt _ 16,9 C 80 % 1013,5 hPa #14,4 l/m 5,0 km/h (1 Bft) SW #49:32 h #24,689 mm 2,7 UV-I 327 W/m 13,0 C 16,6 C 7,6 km/h (2 Bft) 98,43 %